Time;durP1;ratioP1;P1;durP2;ratioP2;P2;SDS_P1;SDS_P2;PMS_P1;PMS_P2;Temp;Humidity;BMP_temperature;BMP_pressure;BME280_temperature;BME280_humidity;BME280_pressure;Samples;Min_cycle;Max_cycle;Signal;HPM_P1;HPM_P2
2023/01/08 00:00:35;;;;;;;30.40;17.40;;;;;;;2.35;92.95;101882.70;105523;1275;72626;-71
2023/01/08 00:03:24;;;;;;;24.40;16.60;;;;;;;2.33;92.11;101886.53;105677;1269;64460;-71
2023/01/08 00:05:53;;;;;;;27.70;16.20;;;;;;;2.28;92.80;101889.73;105501;1266;69617;-75
2023/01/08 00:08:22;;;;;;;29.60;17.50;;;;;;;2.30;93.43;101892.09;105662;1269;74844;-74
2023/01/08 00:10:55;;;;;;;32.60;18.10;;;;;;;2.31;93.71;101891.02;105541;1260;62035;-71
2023/01/08 00:13:25;;;;;;;30.40;17.40;;;;;;;2.29;92.87;101891.25;105382;1269;59135;-72
2023/01/08 00:15:54;;;;;;;34.00;19.50;;;;;;;2.32;93.27;101891.02;105596;1267;62605;-74
2023/01/08 00:18:25;;;;;;;33.60;19.20;;;;;;;2.31;93.70;101888.98;105521;1265;62322;-74
2023/01/08 00:20:54;;;;;;;34.40;18.50;;;;;;;2.30;93.71;101891.56;105482;1272;69612;-72
2023/01/08 00:23:23;;;;;;;33.70;19.00;;;;;;;2.28;94.71;101886.44;105557;1266;72869;-72
2023/01/08 00:25:53;;;;;;;27.60;18.70;;;;;;;2.31;94.37;101889.45;105479;1275;62968;-73
2023/01/08 00:28:21;;;;;;;31.90;19.00;;;;;;;2.38;96.25;101889.69;105539;1269;61662;-70
2023/01/08 00:30:50;;;;;;;28.80;18.50;;;;;;;2.39;95.68;101890.54;105490;1266;63730;-73
2023/01/08 00:33:20;;;;;;;30.80;18.10;;;;;;;2.36;95.71;101896.27;105519;1270;72034;-72
2023/01/08 00:35:49;;;;;;;27.70;16.30;;;;;;;2.33;95.77;101900.45;105400;1265;70740;-71
2023/01/08 00:38:18;;;;;;;29.80;17.60;;;;;;;2.33;96.66;101900.45;105304;1257;71903;-71
2023/01/08 00:40:47;;;;;;;25.80;16.00;;;;;;;2.39;97.27;101897.56;105442;1270;58956;-73
2023/01/08 00:43:16;;;;;;;25.90;15.90;;;;;;;2.39;96.51;101899.65;105483;1275;58291;-73
2023/01/08 00:45:45;;;;;;;26.80;14.90;;;;;;;2.32;96.62;101902.02;105317;1269;64621;-70
2023/01/08 00:48:14;;;;;;;26.50;14.80;;;;;;;2.27;97.56;101906.23;105343;1275;61609;-71
2023/01/08 00:50:43;;;;;;;20.90;13.60;;;;;;;2.26;98.40;101906.95;105503;1265;61278;-72
2023/01/08 00:53:13;;;;;;;24.50;14.20;;;;;;;2.30;98.29;101906.36;105483;1266;74724;-73
2023/01/08 00:55:41;;;;;;;22.20;12.90;;;;;;;2.25;98.32;101902.67;105366;1268;62480;-75
2023/01/08 00:58:12;;;;;;;21.20;12.70;;;;;;;2.24;99.32;101900.45;105504;1273;60007;-76
2023/01/08 01:00:41;;;;;;;21.50;13.10;;;;;;;2.28;99.74;101900.55;105518;1261;64419;-72
2023/01/08 01:03:10;;;;;;;20.30;12.10;;;;;;;2.30;99.30;101902.55;105525;1269;72420;-72
2023/01/08 01:05:38;;;;;;;20.00;12.10;;;;;;;2.28;98.82;101901.40;105331;1269;71260;-70
2023/01/08 01:08:07;;;;;;;20.20;11.50;;;;;;;2.27;98.99;101903.14;105487;1270;73716;-70
2023/01/08 01:10:39;;;;;;;18.30;10.80;;;;;;;2.28;98.73;101907.27;105369;1267;62098;-70
2023/01/08 01:13:07;;;;;;;21.60;12.40;;;;;;;2.21;99.07;101910.64;105456;1266;60981;-72
2023/01/08 01:15:37;;;;;;;20.50;12.00;;;;;;;2.19;99.34;101907.77;105470;1270;72929;-71
2023/01/08 01:18:06;;;;;;;19.10;11.40;;;;;;;2.19;100.00;101900.38;105448;1260;71752;-71
2023/01/08 01:20:35;;;;;;;19.60;12.20;;;;;;;2.17;99.99;101896.12;105343;1272;69228;-71
2023/01/08 01:23:04;;;;;;;20.20;12.20;;;;;;;2.11;100.00;101896.73;105465;1275;63074;-70
2023/01/08 01:25:37;;;;;;;21.50;12.20;;;;;;;2.10;100.00;101896.41;105454;1260;58861;-70
2023/01/08 01:28:05;;;;;;;20.90;12.60;;;;;;;2.10;100.00;101889.38;105536;1275;60810;-70
2023/01/08 01:30:34;;;;;;;20.90;12.00;;;;;;;2.11;100.00;101887.46;105424;1260;74496;-71
2023/01/08 01:33:04;;;;;;;21.10;12.80;;;;;;;2.19;100.00;101887.14;105590;1269;72080;-73
2023/01/08 01:35:33;;;;;;;19.70;11.90;;;;;;;2.20;100.00;101890.56;105540;1266;68500;-72
2023/01/08 01:38:02;;;;;;;20.70;12.50;;;;;;;2.18;100.00;101888.70;105504;1267;72719;-69
2023/01/08 01:40:31;;;;;;;18.80;12.50;;;;;;;2.20;100.00;101885.91;105388;1269;61311;-70
2023/01/08 01:43:00;;;;;;;19.30;11.80;;;;;;;2.23;100.00;101879.84;105537;1265;61071;-70
2023/01/08 01:45:30;;;;;;;19.00;11.40;;;;;;;2.19;100.00;101878.89;105474;1263;73864;-72
2023/01/08 01:48:05;;;;;;;20.20;12.20;;;;;;;2.24;100.00;101879.48;105653;1260;72534;-70
2023/01/08 01:50:53;;;;;;;22.40;12.20;;;;;;;2.23;100.00;101881.22;105559;1265;69712;-74
2023/01/08 01:53:35;;;;;;;23.10;13.10;;;;;;;2.23;100.00;101878.83;105533;1269;73022;-71
2023/01/08 01:56:05;;;;;;;20.10;11.20;;;;;;;2.18;100.00;101878.23;105454;1263;59018;-72
2023/01/08 01:58:34;;;;;;;19.80;12.30;;;;;;;2.20;100.00;101879.39;105618;1265;61042;-74
2023/01/08 02:01:08;;;;;;;18.20;11.50;;;;;;;2.24;100.00;101875.36;105549;1261;74447;-75
2023/01/08 02:03:39;;;;;;;19.00;11.60;;;;;;;2.26;100.00;101872.73;105521;1267;72147;-76
2023/01/08 02:06:36;;;;;;;17.70;10.50;;;;;;;2.24;100.00;101870.88;105739;1263;60114;-71
2023/01/08 02:09:30;;;;;;;20.50;11.40;;;;;;;2.18;100.00;101873.58;105740;1262;62636;-72
2023/01/08 02:12:16;;;;;;;18.50;10.80;;;;;;;2.11;100.00;101873.52;105716;1266;60121;-71
2023/01/08 02:15:02;;;;;;;18.00;11.50;;;;;;;2.14;100.00;101871.24;105734;1270;60657;-71
2023/01/08 02:17:59;;;;;;;16.60;10.40;;;;;;;2.13;100.00;101870.91;105723;1270;62562;-71
2023/01/08 02:21:12;;;;;;;17.60;10.50;;;;;;;2.14;100.00;101869.19;105569;1266;71813;-71
2023/01/08 02:24:10;;;;;;;18.30;10.30;;;;;;;2.09;100.00;101876.50;104983;1282;59439;-70
2023/01/08 02:26:39;;;;;;;18.80;10.90;;;;;;;2.11;100.00;101877.66;104942;1271;73186;-73
2023/01/08 02:29:23;;;;;;;20.30;11.20;;;;;;;2.10;100.00;101868.58;105374;1266;61657;-70
2023/01/08 02:31:52;;;;;;;18.00;10.10;;;;;;;2.14;100.00;101869.35;105468;1266;60993;-72
2023/01/08 02:34:20;;;;;;;16.70;10.20;;;;;;;2.11;100.00;101867.85;105433;1270;72953;-73
2023/01/08 02:36:54;;;;;;;17.10;10.20;;;;;;;2.08;100.00;101866.36;105195;1271;73058;-70
2023/01/08 02:39:41;;;;;;;16.00;10.10;;;;;;;2.13;100.00;101861.30;105506;1272;69041;-72
2023/01/08 02:42:38;;;;;;;16.00;9.40;;;;;;;2.19;100.00;101856.02;105440;1266;62922;-69
2023/01/08 02:45:43;;;;;;;16.30;9.90;;;;;;;2.18;100.00;101853.82;105690;1266;59036;-73
2023/01/08 02:48:31;;;;;;;16.10;8.90;;;;;;;2.16;100.00;101855.92;105639;1274;60453;-73
2023/01/08 02:51:25;;;;;;;19.50;10.00;;;;;;;2.03;100.00;101854.28;105511;1272;73531;-72
2023/01/08 02:54:01;;;;;;;20.30;10.20;;;;;;;1.96;100.00;101854.58;105513;1267;61939;-73
2023/01/08 02:56:39;;;;;;;17.50;9.70;;;;;;;1.93;100.00;101854.80;105471;1275;59175;-69
2023/01/08 02:59:12;;;;;;;19.50;10.00;;;;;;;1.91;100.00;101854.15;105582;1263;73694;-71
2023/01/08 03:01:41;;;;;;;;;;;;;;;1.82;100.00;101857.39;105307;1269;61988;-73
2023/01/08 03:04:20;;;;;;;17.80;9.40;;;;;;;1.86;100.00;101861.45;105446;1271;57413;-71
2023/01/08 03:06:49;;;;;;;14.50;8.80;;;;;;;1.81;100.00;101860.33;105460;1260;73459;-70
2023/01/08 03:09:19;;;;;;;15.00;8.20;;;;;;;1.78;100.00;101862.10;105367;1266;72299;-70
2023/01/08 03:11:58;;;;;;;19.80;10.20;;;;;;;1.70;100.00;101864.48;105268;1260;70388;-71
2023/01/08 03:14:40;;;;;;;18.10;10.80;;;;;;;1.64;100.00;101868.88;105450;1269;63479;-72
2023/01/08 03:17:33;;;;;;;19.30;10.00;;;;;;;1.68;100.00;101873.63;105527;1260;61304;-70
2023/01/08 03:20:15;;;;;;;18.60;10.70;;;;;;;1.71;100.00;101875.28;105588;1260;61484;-71
2023/01/08 03:22:49;;;;;;;19.20;9.90;;;;;;;1.75;100.00;101868.34;105519;1260;63420;-70
2023/01/08 03:25:23;;;;;;;17.60;10.30;;;;;;;1.73;100.00;101868.55;105364;1268;61520;-70
2023/01/08 03:28:01;;;;;;;18.10;10.40;;;;;;;1.76;100.00;101866.45;105373;1272;69312;-71
2023/01/08 03:30:31;;;;;;;17.90;9.70;;;;;;;1.71;100.00;101863.95;105308;1263;71427;-71
2023/01/08 03:33:01;;;;;;;16.90;10.20;;;;;;;1.72;100.00;101859.14;105337;1268;60264;-73
2023/01/08 03:35:32;;;;;;;17.20;10.40;;;;;;;1.75;100.00;101862.50;105337;1270;59077;-70
2023/01/08 03:38:15;;;;;;;17.90;10.90;;;;;;;1.71;100.00;101862.91;105401;1269;62023;-70
2023/01/08 03:40:49;;;;;;;17.30;10.60;;;;;;;1.74;100.00;101865.79;105523;1260;60859;-71
2023/01/08 03:43:18;;;;;;;17.40;10.30;;;;;;;1.74;100.00;101865.44;105349;1272;68872;-71
2023/01/08 03:45:55;;;;;;;19.40;10.90;;;;;;;1.65;100.00;101865.95;105360;1275;73295;-72
2023/01/08 03:48:27;;;;;;;17.60;9.50;;;;;;;1.60;100.00;101872.88;105360;1269;61586;-71
2023/01/08 03:50:56;;;;;;;19.20;10.90;;;;;;;1.61;100.00;101869.11;105346;1269;62535;-71
2023/01/08 03:53:25;;;;;;;17.70;9.70;;;;;;;1.60;100.00;101865.50;105294;1261;73557;-71
2023/01/08 03:55:56;;;;;;;20.30;10.40;;;;;;;1.61;100.00;101863.77;105285;1263;71399;-72
2023/01/08 03:58:25;;;;;;;18.90;10.90;;;;;;;1.57;100.00;101863.33;105261;1269;59799;-72
2023/01/08 04:00:54;;;;;;;20.30;11.50;;;;;;;1.60;100.00;101863.98;105415;1273;63211;-74
2023/01/08 04:03:23;;;;;;;18.80;10.60;;;;;;;1.62;100.00;101858.10;105487;1266;59626;-73
2023/01/08 04:05:52;;;;;;;20.50;11.10;;;;;;;1.67;100.00;101854.24;105312;1269;58925;-71
2023/01/08 04:08:21;;;;;;;19.10;11.20;;;;;;;1.71;100.00;101850.73;105367;1262;73164;-70
2023/01/08 04:10:50;;;;;;;15.80;9.00;;;;;;;1.68;100.00;101850.10;105423;1263;72307;-70
2023/01/08 04:13:19;;;;;;;15.40;9.00;;;;;;;1.68;100.00;101849.23;105366;1273;70436;-70
2023/01/08 04:15:50;;;;;;;18.90;10.20;;;;;;;1.69;100.00;101847.83;105269;1263;62622;-70
2023/01/08 04:18:19;;;;;;;19.90;11.50;;;;;;;1.69;100.00;101850.25;105246;1272;59119;-70
2023/01/08 04:20:48;;;;;;;19.70;10.60;;;;;;;1.68;100.00;101851.46;105293;1274;57456;-73
2023/01/08 04:23:17;;;;;;;18.20;11.00;;;;;;;1.72;100.00;101852.94;105318;1266;73537;-71
2023/01/08 04:25:45;;;;;;;17.80;10.20;;;;;;;1.65;100.00;101855.64;105271;1270;71960;-72
2023/01/08 04:28:14;;;;;;;18.90;10.60;;;;;;;1.62;100.00;101849.84;105314;1270;60236;-72
2023/01/08 04:30:44;;;;;;;20.10;11.00;;;;;;;1.62;100.00;101846.59;105330;1263;62475;-73
2023/01/08 04:33:13;;;;;;;17.00;9.80;;;;;;;1.63;100.00;101846.39;105406;1274;61866;-72
2023/01/08 04:35:42;;;;;;;18.10;10.60;;;;;;;1.61;100.00;101854.15;105483;1267;60761;-70
2023/01/08 04:38:11;;;;;;;20.60;10.60;;;;;;;1.57;100.00;101860.92;105510;1268;63207;-72
2023/01/08 04:40:40;;;;;;;21.80;10.70;;;;;;;1.55;100.00;101862.52;105349;1269;61080;-73
2023/01/08 04:43:09;;;;;;;19.70;11.90;;;;;;;1.51;100.00;101862.40;105457;1273;59468;-72
2023/01/08 04:45:38;;;;;;;19.30;10.40;;;;;;;1.49;100.00;101866.54;105270;1270;62834;-71
2023/01/08 04:48:07;;;;;;;20.10;10.70;;;;;;;1.47;100.00;101862.11;105341;1275;59627;-70
2023/01/08 04:50:36;;;;;;;22.80;11.20;;;;;;;1.51;100.00;101862.22;105660;1274;57421;-71
2023/01/08 04:53:05;;;;;;;23.20;12.10;;;;;;;1.53;100.00;101858.58;105450;1267;62922;-70
2023/01/08 04:55:34;;;;;;;19.00;11.00;;;;;;;1.56;100.00;101855.09;105476;1266;60842;-72
2023/01/08 04:58:04;;;;;;;22.60;11.90;;;;;;;1.59;100.00;101852.31;105435;1266;68597;-70
2023/01/08 05:00:33;;;;;;;25.80;12.40;;;;;;;1.61;100.00;101848.16;105488;1271;63096;-72
2023/01/08 05:03:02;;;;;;;22.00;10.90;;;;;;;1.54;100.00;101854.27;105546;1270;58732;-71
2023/01/08 05:05:34;;;;;;;24.20;11.30;;;;;;;1.49;100.00;101856.23;105495;1260;59493;-70
2023/01/08 05:08:03;;;;;;;23.90;12.40;;;;;;;1.49;100.00;101855.55;105490;1266;72671;-71
2023/01/08 05:10:32;;;;;;;18.80;11.00;;;;;;;1.44;100.00;101852.89;105408;1267;61397;-71
2023/01/08 05:13:01;;;;;;;18.60;10.20;;;;;;;1.39;100.00;101848.52;105542;1269;67888;-71
2023/01/08 05:15:30;;;;;;;20.60;10.70;;;;;;;1.38;100.00;101848.17;105463;1263;73493;-72
2023/01/08 05:18:03;;;;;;;20.20;10.90;;;;;;;1.30;100.00;101850.04;105570;1263;60050;-72
2023/01/08 05:20:33;;;;;;;16.00;8.90;;;;;;;1.34;100.00;101854.09;105409;1275;60156;-71
2023/01/08 05:23:01;;;;;;;19.10;10.70;;;;;;;1.37;100.00;101854.39;105373;1275;73949;-70
2023/01/08 05:25:30;;;;;;;20.00;11.00;;;;;;;1.41;100.00;101852.61;105507;1265;70277;-71
2023/01/08 05:27:59;;;;;;;21.00;10.10;;;;;;;1.46;100.00;101859.91;105530;1275;68067;-70
2023/01/08 05:30:28;;;;;;;21.20;10.80;;;;;;;1.44;100.00;101864.74;105585;1266;71066;-74
2023/01/08 05:32:57;;;;;;;16.30;9.50;;;;;;;1.41;100.00;101873.20;105643;1270;59047;-73
2023/01/08 05:35:26;;;;;;;17.00;9.50;;;;;;;1.40;100.00;101878.36;105627;1267;59596;-75
2023/01/08 05:37:55;;;;;;;16.50;9.60;;;;;;;1.36;100.00;101883.06;105636;1271;71092;-71
2023/01/08 05:40:24;;;;;;;17.60;9.30;;;;;;;1.36;100.00;101889.59;105375;1269;70917;-70
2023/01/08 05:42:53;;;;;;;15.00;9.30;;;;;;;1.33;100.00;101890.14;105541;1260;70253;-73
2023/01/08 05:45:22;;;;;;;15.40;7.80;;;;;;;1.33;100.00;101897.69;105378;1273;71882;-71
2023/01/08 05:47:51;;;;;;;17.40;9.00;;;;;;;1.34;100.00;101900.77;105483;1266;59116;-72
2023/01/08 05:50:20;;;;;;;16.70;7.90;;;;;;;1.34;100.00;101903.17;105506;1274;59141;-71
2023/01/08 05:52:49;;;;;;;14.80;9.10;;;;;;;1.29;100.00;101907.70;105314;1274;62445;-72
2023/01/08 05:55:18;;;;;;;14.30;8.30;;;;;;;1.35;100.00;101911.58;105380;1265;69668;-71
2023/01/08 05:57:47;;;;;;;15.00;8.80;;;;;;;1.31;100.00;101913.02;105284;1272;68627;-71
2023/01/08 06:00:16;;;;;;;14.30;8.00;;;;;;;1.39;100.00;101912.04;105308;1266;71609;-71
2023/01/08 06:02:48;;;;;;;18.10;9.50;;;;;;;1.36;100.00;101914.30;105430;1272;59101;-72
2023/01/08 06:05:17;;;;;;;18.10;10.00;;;;;;;1.34;100.00;101920.17;105475;1275;58908;-71
2023/01/08 06:07:46;;;;;;;18.30;9.20;;;;;;;1.34;100.00;101916.05;105504;1267;71568;-71
2023/01/08 06:10:15;;;;;;;17.50;10.20;;;;;;;1.28;100.00;101913.73;105485;1270;69643;-70
2023/01/08 06:12:44;;;;;;;18.80;10.20;;;;;;;1.33;100.00;101917.44;105578;1274;67824;-71
2023/01/08 06:15:14;;;;;;;17.90;10.30;;;;;;;1.34;100.00;101916.56;105524;1275;73717;-72
2023/01/08 06:17:43;;;;;;;18.00;9.50;;;;;;;1.40;100.00;101914.92;105612;1263;61578;-75
2023/01/08 06:20:12;;;;;;;16.50;8.50;;;;;;;1.37;100.00;101917.72;105588;1267;59027;-72
2023/01/08 06:22:40;;;;;;;18.50;10.30;;;;;;;1.31;100.00;101919.70;105260;1266;73344;-72
2023/01/08 06:25:09;;;;;;;20.10;10.70;;;;;;;1.27;100.00;101923.52;105474;1263;72173;-72
2023/01/08 06:27:38;;;;;;;14.10;7.70;;;;;;;1.29;100.00;101927.11;105434;1275;70629;-70
2023/01/08 06:30:08;;;;;;;17.00;9.20;;;;;;;1.29;100.00;101928.64;105555;1260;72336;-71
2023/01/08 06:32:37;;;;;;;20.40;10.50;;;;;;;1.36;100.00;101930.61;105408;1275;62063;-72
2023/01/08 06:35:07;;;;;;;18.30;9.50;;;;;;;1.27;100.00;101931.95;105487;1274;62012;-71
2023/01/08 06:37:37;;;;;;;18.00;10.20;;;;;;;1.26;100.00;101926.83;105394;1263;62734;-71
2023/01/08 06:40:07;;;;;;;18.30;10.40;;;;;;;1.33;100.00;101926.54;105550;1274;70468;-70
2023/01/08 06:42:36;;;;;;;18.50;9.80;;;;;;;1.33;100.00;101923.79;105587;1266;70791;-72
2023/01/08 06:45:06;;;;;;;18.10;10.50;;;;;;;1.34;100.00;101924.45;105554;1260;73641;-70
2023/01/08 06:47:35;;;;;;;18.20;9.70;;;;;;;1.33;100.00;101926.38;105498;1266;60267;-72
2023/01/08 06:50:05;;;;;;;21.40;10.70;;;;;;;1.36;100.00;101925.64;105596;1275;58931;-71
2023/01/08 06:52:34;;;;;;;19.40;11.00;;;;;;;1.39;100.00;101925.59;105560;1267;62106;-71
2023/01/08 06:55:05;;;;;;;20.60;10.70;;;;;;;1.42;100.00;101925.02;105367;1265;61952;-73
2023/01/08 06:57:34;;;;;;;18.00;10.70;;;;;;;1.40;100.00;101928.67;105356;1268;71479;-72
2023/01/08 07:00:04;;;;;;;16.60;9.90;;;;;;;1.49;100.00;101927.85;105409;1273;73298;-74
2023/01/08 07:02:33;;;;;;;18.40;9.90;;;;;;;1.40;100.00;101930.73;105521;1274;61267;-71
2023/01/08 07:05:02;;;;;;;16.60;9.50;;;;;;;1.32;100.00;101926.55;105520;1272;59154;-71
2023/01/08 07:07:31;;;;;;;16.20;9.60;;;;;;;1.24;100.00;101922.21;105630;1274;70669;-72
2023/01/08 07:10:00;;;;;;;18.50;10.00;;;;;;;1.17;100.00;101930.54;105362;1269;71265;-72
2023/01/08 07:12:29;;;;;;;17.20;9.70;;;;;;;1.23;100.00;101932.17;105437;1266;68610;-71
2023/01/08 07:14:58;;;;;;;19.50;11.10;;;;;;;1.17;100.00;101932.61;105532;1263;71150;-72
2023/01/08 07:17:27;;;;;;;19.70;10.90;;;;;;;1.25;100.00;101929.75;105332;1274;62511;-74
2023/01/08 07:19:56;;;;;;;17.70;10.10;;;;;;;1.25;100.00;101936.59;105432;1262;60685;-72
2023/01/08 07:22:24;;;;;;;20.20;10.20;;;;;;;1.22;100.00;101941.30;105267;1268;73250;-74
2023/01/08 07:24:54;;;;;;;15.90;9.80;;;;;;;1.23;100.00;101933.54;105290;1275;70767;-71
2023/01/08 07:27:23;;;;;;;18.10;8.90;;;;;;;1.29;100.00;101938.43;105448;1263;69620;-75
2023/01/08 07:29:54;;;;;;;19.70;10.30;;;;;;;1.20;100.00;101938.57;105249;1269;73252;-73
2023/01/08 07:32:23;;;;;;;20.80;11.70;;;;;;;1.20;100.00;101939.95;105365;1267;61224;-72
2023/01/08 07:34:53;;;;;;;17.90;9.90;;;;;;;1.16;100.00;101933.64;105208;1269;59222;-73
2023/01/08 07:37:22;;;;;;;15.30;9.60;;;;;;;1.19;100.00;101935.32;105220;1270;62206;-73
2023/01/08 07:39:52;;;;;;;16.70;9.70;;;;;;;1.21;100.00;101937.17;105300;1269;70253;-73
2023/01/08 07:42:21;;;;;;;18.70;11.30;;;;;;;1.24;100.00;101939.20;105269;1275;69610;-72
2023/01/08 07:44:50;;;;;;;17.20;10.70;;;;;;;1.24;100.00;101935.25;105274;1269;73079;-72
2023/01/08 07:47:18;;;;;;;15.30;8.40;;;;;;;1.22;100.00;101934.60;105562;1270;61540;-72
2023/01/08 07:49:48;;;;;;;16.80;10.20;;;;;;;1.24;100.00;101932.50;105323;1272;61014;-74
2023/01/08 07:53:02;;;;;;;17.60;10.80;;;;;;;1.13;100.00;101942.60;104560;1275;600486;-72
2023/01/08 07:55:31;;;;;;;17.00;9.50;;;;;;;1.20;100.00;101938.22;106905;1249;61808;-73
2023/01/08 07:58:00;;;;;;;15.20;9.80;;;;;;;1.28;100.00;101938.11;107034;1258;61964;-73
2023/01/08 08:00:29;;;;;;;14.60;9.80;;;;;;;1.28;100.00;101938.44;106943;1248;71929;-74
2023/01/08 08:03:03;;;;;;;15.60;10.00;;;;;;;1.30;100.00;101932.59;106823;1249;72438;-72
2023/01/08 08:05:34;;;;;;;19.10;11.10;;;;;;;1.38;100.00;101931.10;106381;1258;599295;-73
2023/01/08 08:08:09;;;;;;;16.70;10.40;;;;;;;1.46;100.00;101937.50;107021;1245;72972;-72
2023/01/08 08:10:41;;;;;;;15.20;9.20;;;;;;;1.52;99.95;101936.02;107009;1251;60298;-72
2023/01/08 08:13:11;;;;;;;17.00;9.30;;;;;;;1.56;99.97;101933.56;106932;1248;60371;-72
2023/01/08 08:15:40;;;;;;;15.50;9.00;;;;;;;1.61;99.53;101935.90;107288;1245;73139;-72
2023/01/08 08:18:09;;;;;;;15.60;9.30;;;;;;;1.46;99.64;101940.95;107393;1245;70636;-72
2023/01/08 08:20:38;;;;;;;13.40;9.80;;;;;;;1.48;100.00;101939.70;107172;1241;71475;-73
2023/01/08 08:23:12;;;;;;;16.60;9.90;;;;;;;1.58;99.65;101939.73;107322;1241;73353;-71
2023/01/08 08:25:42;;;;;;;13.90;9.20;;;;;;;1.52;99.22;101941.52;107295;1244;59095;-74
2023/01/08 08:28:11;;;;;;;14.00;8.30;;;;;;;1.51;99.25;101943.09;107477;1244;57812;-70
2023/01/08 08:30:41;;;;;;;15.30;8.30;;;;;;;1.59;99.02;101948.29;107408;1248;72660;-73
2023/01/08 08:33:10;;;;;;;13.80;8.90;;;;;;;1.54;98.14;101945.62;107378;1246;69690;-74
2023/01/08 08:35:39;;;;;;;12.80;8.10;;;;;;;1.43;98.11;101947.66;107199;1248;68652;-73
2023/01/08 08:38:08;;;;;;;14.10;8.60;;;;;;;1.31;98.40;101948.70;107288;1244;71853;-75
2023/01/08 08:40:37;;;;;;;14.00;8.70;;;;;;;1.29;98.64;101950.27;107315;1244;60463;-76
2023/01/08 08:43:08;;;;;;;15.90;9.30;;;;;;;1.28;98.60;101948.77;107449;1254;61484;-71
2023/01/08 08:45:37;;;;;;;15.30;9.50;;;;;;;1.22;98.74;101945.23;107415;1244;71210;-72
2023/01/08 08:48:07;;;;;;;15.20;8.40;;;;;;;1.14;98.92;101943.11;107547;1241;69956;-71
2023/01/08 08:50:38;;;;;;;15.50;10.10;;;;;;;1.19;98.20;101936.35;107369;1254;68601;-76
2023/01/08 08:53:08;;;;;;;15.40;9.60;;;;;;;1.09;99.18;101940.77;107317;1241;73795;-75
2023/01/08 08:55:37;;;;;;;17.00;9.20;;;;;;;1.11;99.03;101935.25;107658;1241;61974;-73
2023/01/08 08:58:10;;;;;;;18.80;8.80;;;;;;;1.15;98.34;101934.52;107581;1243;60805;-73
2023/01/08 09:00:41;;;;;;;16.70;10.20;;;;;;;1.08;98.43;101932.55;107681;1244;72616;-72
2023/01/08 09:03:15;;;;;;;17.00;9.60;;;;;;;1.11;98.79;101925.30;107501;1241;72475;-74
2023/01/08 09:05:44;;;;;;;17.80;9.60;;;;;;;1.18;98.80;101926.08;107592;1244;68294;-73
2023/01/08 09:08:13;;;;;;;15.10;9.10;;;;;;;1.07;97.96;101932.73;107554;1244;72857;-74
2023/01/08 09:10:42;;;;;;;16.80;8.90;;;;;;;1.05;97.73;101927.61;107587;1251;62453;-74
2023/01/08 09:13:11;;;;;;;18.90;10.50;;;;;;;1.10;97.98;101919.15;107650;1241;60038;-73
2023/01/08 09:15:40;;;;;;;17.20;9.90;;;;;;;1.07;97.96;101918.15;107546;1252;70840;-74
2023/01/08 09:18:09;;;;;;;16.60;8.50;;;;;;;1.09;97.74;101913.66;107461;1245;70193;-73
2023/01/08 09:20:38;;;;;;;17.90;9.20;;;;;;;1.01;97.47;101912.05;107781;1242;67828;-75
2023/01/08 09:23:08;;;;;;;19.30;9.90;;;;;;;1.03;97.86;101904.82;107354;1248;71086;-74
2023/01/08 09:25:37;;;;;;;16.80;9.90;;;;;;;0.97;97.29;101904.21;107494;1244;59632;-75
2023/01/08 09:28:11;;;;;;;20.80;9.70;;;;;;;1.02;97.24;101902.94;107564;1245;61100;-74
2023/01/08 09:30:40;;;;;;;17.80;9.90;;;;;;;1.13;97.33;101901.25;107430;1245;71243;-74
2023/01/08 09:33:10;;;;;;;17.50;9.40;;;;;;;1.03;96.69;101903.63;107411;1241;69464;-74
2023/01/08 09:41:46;;;;;;;17.40;10.20;;;;;;;1.02;96.77;101890.25;104269;1279;602831;-73
2023/01/08 09:44:25;;;;;;;15.20;9.70;;;;;;;0.95;96.72;101888.98;107068;1252;59510;-75
2023/01/08 09:46:55;;;;;;;16.30;9.40;;;;;;;1.02;96.62;101884.42;106833;1251;59089;-74
2023/01/08 09:49:37;;;;;;;17.90;9.40;;;;;;;0.98;96.16;101881.23;107163;1248;68313;-77
2023/01/08 09:52:12;;;;;;;17.00;9.60;;;;;;;1.03;96.46;101881.50;107111;1251;72149;-73
2023/01/08 09:54:41;;;;;;;18.90;9.80;;;;;;;1.00;95.27;101879.48;107081;1248;332262;-75
2023/01/08 09:57:20;;;;;;;16.80;9.90;;;;;;;0.93;95.74;101875.30;107501;1248;71129;-74
2023/01/08 09:59:49;;;;;;;17.80;10.20;;;;;;;0.92;95.76;101874.27;107222;1248;61232;-73
2023/01/08 10:02:24;;;;;;;21.00;10.00;;;;;;;0.97;95.25;101868.37;107220;1245;60823;-74
2023/01/08 10:04:59;;;;;;;18.20;9.30;;;;;;;0.87;95.12;101861.30;107152;1249;68883;-73
2023/01/08 10:07:30;;;;;;;18.40;10.00;;;;;;;0.92;95.16;101859.52;107346;1250;70247;-75
2023/01/08 10:09:59;;;;;;;35.90;18.40;;;;;;;0.95;95.22;101864.11;107149;1245;69676;-77
2023/01/08 10:12:31;;;;;;;18.80;10.90;;;;;;;0.90;95.22;101862.64;107299;1256;74190;-73
2023/01/08 10:15:10;;;;;;;24.00;11.90;;;;;;;0.82;95.59;101867.73;107143;1251;59725;-73
2023/01/08 10:17:44;;;;;;;26.00;12.00;;;;;;;0.81;95.81;101867.05;107165;1252;60427;-74
2023/01/08 10:20:20;;;;;;;20.10;11.10;;;;;;;0.82;96.30;101870.29;107125;1251;71582;-74
2023/01/08 10:22:53;;;;;;;21.70;12.50;;;;;;;0.74;96.32;101870.75;107265;1257;73133;-73
2023/01/08 10:25:26;;;;;;;20.60;13.30;;;;;;;0.74;96.51;101873.48;107165;1254;70099;-75
2023/01/08 10:28:01;;;;;;;26.90;11.70;;;;;;;0.64;96.73;101869.66;107349;1249;71538;-74
2023/01/08 10:30:36;;;;;;;21.30;11.60;;;;;;;0.55;97.34;101869.27;107284;1251;61397;-74
2023/01/08 10:33:10;;;;;;;18.70;10.20;;;;;;;0.49;97.50;101866.77;107252;1254;60344;-73
2023/01/08 10:35:41;;;;;;;26.50;14.00;;;;;;;0.37;98.06;101866.39;107312;1248;62584;-73
2023/01/08 10:38:32;;;;;;;26.60;14.40;;;;;;;0.34;98.62;101862.33;107324;1249;70299;-74
2023/01/08 10:41:06;;;;;;;20.70;11.20;;;;;;;0.44;98.01;101858.77;107177;1249;68606;-75
2023/01/08 10:43:46;;;;;;;20.70;10.50;;;;;;;0.40;97.63;101859.68;107102;1257;72008;-73
2023/01/08 10:46:27;;;;;;;21.40;11.60;;;;;;;0.33;98.03;101858.06;107203;1255;61775;-72
2023/01/08 10:49:03;;;;;;;22.60;11.40;;;;;;;0.23;98.63;101855.92;107384;1250;59111;-72
2023/01/08 10:51:32;;;;;;;27.80;14.60;;;;;;;0.21;98.68;101853.73;107225;1250;73115;-70
2023/01/08 10:54:22;;;;;;;25.80;15.50;;;;;;;0.19;99.43;101853.58;107200;1249;70695;-72
2023/01/08 10:56:51;;;;;;;24.20;14.10;;;;;;;0.06;99.63;101853.72;107734;1249;68643;-76
2023/01/08 10:59:24;;;;;;;28.20;13.40;;;;;;;0.02;99.66;101856.67;107758;1248;73928;-76
2023/01/08 11:01:57;;;;;;;23.20;12.70;;;;;;;0.12;99.61;101848.17;107422;1255;63670;-74
2023/01/08 11:04:34;;;;;;;26.20;15.70;;;;;;;0.02;99.56;101850.67;107393;1252;60980;-79
2023/01/08 11:07:06;;;;;;;25.20;12.70;;;;;;;-0.01;99.96;101846.42;107372;1248;70472;-77
2023/01/08 11:09:48;;;;;;;30.00;13.50;;;;;;;-0.00;99.91;101841.64;107620;1249;69506;-76
2023/01/08 11:12:40;;;;;;;27.40;14.70;;;;;;;0.07;99.59;101840.53;107303;1246;70466;-73
2023/01/08 11:15:34;;;;;;;23.10;13.50;;;;;;;-0.02;99.97;101840.29;107454;1248;71868;-76
2023/01/08 11:18:18;;;;;;;34.30;19.10;;;;;;;-0.02;99.94;101839.59;107282;1251;59709;-76
2023/01/08 11:20:48;;;;;;;25.00;13.60;;;;;;;-0.01;99.86;101837.19;107312;1257;61200;-74
2023/01/08 11:23:23;;;;;;;70.10;28.00;;;;;;;-0.01;100.00;101842.33;107338;1250;71403;-76
2023/01/08 11:26:03;;;;;;;29.80;16.10;;;;;;;0.03;99.79;101842.62;107176;1248;71488;-74
2023/01/08 11:29:13;;;;;;;83.10;34.10;;;;;;;0.03;99.93;101840.39;107235;1248;70880;-74
2023/01/08 11:31:52;;;;;;;82.70;35.40;;;;;;;-0.01;99.92;101841.13;107086;1249;73185;-75
2023/01/08 11:34:46;;;;;;;188.70;69.00;;;;;;;0.14;100.00;101847.46;107342;1256;62415;-74
2023/01/08 11:37:23;;;;;;;37.50;17.50;;;;;;;0.13;100.00;101844.91;107332;1252;59578;-75